Time;durP1;ratioP1;P1;durP2;ratioP2;P2;SDS_P1;SDS_P2;PMS_P1;PMS_P2;Temp;Humidity;BMP_temperature;BMP_pressure;BME280_temperature;BME280_humidity;BME280_pressure;Samples;Min_cycle;Max_cycle;Signal;HPM_P1;HPM_P2
2022/12/22 03:27:07;;;;;;;89.33;29.63;;;3.10;99.90;;;;;;6216486;23;20202;-73
2022/12/22 03:29:34;;;;;;;85.87;29.30;;;3.10;99.90;;;;;;6189828;23;20179;-77
2022/12/22 03:32:00;;;;;;;89.13;28.87;;;3.10;99.90;;;;;;6189827;23;20269;-75
2022/12/22 03:34:27;;;;;;;95.70;30.87;;;3.10;99.90;;;;;;6189789;23;20181;-78
2022/12/22 03:36:54;;;;;;;87.33;29.20;;;3.20;99.90;;;;;;6189770;23;20175;-73
2022/12/22 03:39:21;;;;;;;89.27;29.87;;;3.10;99.90;;;;;;6216724;23;20163;-75
2022/12/22 03:47:18;;;;;;;79.13;28.33;;;3.20;99.90;;;;;;6216209;23;20202;-77
2022/12/22 03:49:45;;;;;;;79.13;28.37;;;3.20;99.90;;;;;;6215692;23;20190;-75
2022/12/22 03:52:12;;;;;;;86.33;29.93;;;3.20;99.90;;;;;;6189561;23;20254;-77
2022/12/22 03:54:39;;;;;;;79.60;27.57;;;3.20;99.90;;;;;;6189621;23;20177;-75
2022/12/22 03:57:06;;;;;;;84.87;29.37;;;3.30;99.90;;;;;;6216097;23;20206;-81
2022/12/22 03:59:33;;;;;;;83.40;28.93;;;3.30;99.90;;;;;;6189589;23;20171;-80
2022/12/22 04:02:00;;;;;;;83.67;28.47;;;3.30;99.90;;;;;;6190155;23;20258;-80
2022/12/22 04:04:27;;;;;;;84.90;29.90;;;3.30;99.90;;;;;;6189281;23;20625;-79
2022/12/22 04:06:54;;;;;;;77.03;27.13;;;3.40;99.90;;;;;;6189499;23;20179;-80
2022/12/22 04:09:21;;;;;;;73.33;26.83;;;3.30;99.90;;;;;;6189927;23;20225;-79
2022/12/22 04:14:34;;;;;;;83.73;29.90;;;3.40;99.90;;;;;;6189404;23;20688;-73
2022/12/22 04:17:03;;;;;;;76.87;28.17;;;3.40;99.90;;;;;;6215803;23;20167;-73
2022/12/22 04:19:31;;;;;;;74.63;28.27;;;3.40;99.90;;;;;;6189702;23;20247;-80
2022/12/22 04:21:58;;;;;;;69.43;27.23;;;3.50;99.90;;;;;;6189547;23;20175;-73
2022/12/22 04:24:25;;;;;;;71.47;27.50;;;3.50;99.90;;;;;;6189290;23;20211;-72
2022/12/22 04:26:52;;;;;;;71.43;27.93;;;3.40;99.90;;;;;;6215765;23;20171;-74
2022/12/22 04:29:19;;;;;;;71.40;27.87;;;3.40;99.90;;;;;;6216039;23;20245;-72
2022/12/22 04:31:46;;;;;;;66.10;26.97;;;3.40;99.90;;;;;;6215720;23;20624;-73
2022/12/22 04:34:13;;;;;;;74.43;28.50;;;3.40;99.90;;;;;;6189405;23;20168;-74
2022/12/22 04:36:39;;;;;;;68.33;27.80;;;3.50;99.90;;;;;;6189596;23;20253;-72
2022/12/22 04:39:06;;;;;;;70.97;28.20;;;3.50;99.90;;;;;;6215879;23;20246;-74
2022/12/22 04:41:34;;;;;;;73.60;27.87;;;3.50;99.90;;;;;;6189484;23;20175;-72
2022/12/22 04:44:00;;;;;;;69.63;27.20;;;3.50;99.90;;;;;;6189212;23;20213;-72
2022/12/22 04:46:27;;;;;;;71.60;28.43;;;3.60;99.90;;;;;;6189366;23;20173;-75
2022/12/22 04:48:55;;;;;;;71.60;28.27;;;3.60;99.90;;;;;;6189091;23;20202;-73
2022/12/22 04:51:27;;;;;;;68.53;28.03;;;3.60;99.90;;;;;;6215756;23;20213;-73
2022/12/22 04:53:54;;;;;;;67.27;27.43;;;3.70;99.90;;;;;;6189606;23;20501;-76
2022/12/22 04:56:21;;;;;;;66.83;28.20;;;3.60;99.90;;;;;;6189056;23;20177;-73
2022/12/22 04:58:48;;;;;;;68.90;28.20;;;3.60;99.90;;;;;;6183961;23;20218;-72
2022/12/22 05:01:16;;;;;;;64.73;27.10;;;3.60;99.90;;;;;;6184586;23;20180;-74
2022/12/22 05:03:44;;;;;;;70.03;28.83;;;3.60;99.90;;;;;;6184130;23;20163;-73
2022/12/22 05:06:11;;;;;;;69.27;27.23;;;3.60;99.90;;;;;;6184029;23;20175;-76
2022/12/22 05:08:38;;;;;;;68.07;27.80;;;3.50;99.90;;;;;;6184032;23;20211;-74
2022/12/22 05:11:06;;;;;;;69.33;27.97;;;3.60;99.90;;;;;;6185598;23;20280;-77
2022/12/22 05:13:33;;;;;;;69.20;27.97;;;3.60;99.90;;;;;;6159347;23;20229;-81
2022/12/22 05:16:11;;;;;;;67.73;27.80;;;3.50;99.90;;;;;;6184256;23;20602;-81
2022/12/22 05:18:39;;;;;;;62.83;27.17;;;3.50;99.90;;;;;;6183985;23;20171;-75
2022/12/22 05:21:10;;;;;;;66.60;28.70;;;3.60;99.90;;;;;;6184343;23;20590;-74
2022/12/22 05:23:38;;;;;;;65.93;27.43;;;3.60;99.90;;;;;;6183817;23;20246;-78
2022/12/22 05:26:05;;;;;;;68.63;28.57;;;3.60;99.90;;;;;;6185509;23;20203;-76
2022/12/22 05:28:32;;;;;;;70.53;28.70;;;3.60;99.90;;;;;;6184032;23;20511;-75
2022/12/22 05:31:26;;;;;;;64.10;27.33;;;3.60;99.90;;;;;;6183788;23;20191;-81
2022/12/22 05:33:53;;;;;;;64.77;27.30;;;3.60;99.90;;;;;;6181061;23;20184;-79
2022/12/22 05:36:20;;;;;;;59.77;26.93;;;3.60;99.90;;;;;;6183802;23;20198;-80
2022/12/22 05:38:47;;;;;;;62.07;26.53;;;3.70;99.90;;;;;;6183821;23;20649;-79
2022/12/22 05:41:14;;;;;;;65.43;27.43;;;3.70;99.90;;;;;;6183978;23;20167;-75
2022/12/22 05:43:41;;;;;;;62.97;27.03;;;3.60;99.90;;;;;;6183773;23;20167;-77
2022/12/22 05:46:09;;;;;;;62.50;26.20;;;3.60;99.90;;;;;;6183583;23;20168;-77
2022/12/22 05:48:37;;;;;;;61.73;26.23;;;3.70;99.90;;;;;;6185091;23;20198;-79
2022/12/22 05:51:09;;;;;;;65.33;26.37;;;3.70;99.90;;;;;;6185052;23;20628;-80
2022/12/22 05:53:37;;;;;;;60.00;26.37;;;3.70;99.90;;;;;;6184880;23;20194;-79
2022/12/22 05:56:04;;;;;;;58.63;26.23;;;3.70;99.90;;;;;;6183627;23;20464;-78
2022/12/22 05:58:31;;;;;;;55.73;26.10;;;3.60;99.90;;;;;;6178715;23;20236;-81
2022/12/22 06:00:59;;;;;;;59.57;26.33;;;3.60;99.90;;;;;;6154452;23;20191;-79
2022/12/22 06:03:26;;;;;;;60.13;26.53;;;3.60;99.90;;;;;;6178801;23;20186;-78
2022/12/22 06:05:54;;;;;;;59.97;26.13;;;3.70;99.90;;;;;;6178891;23;20504;-81
2022/12/22 06:08:22;;;;;;;58.40;25.77;;;3.60;99.90;;;;;;6154088;23;20181;-79
2022/12/22 06:10:49;;;;;;;60.77;26.67;;;3.60;99.90;;;;;;6153782;23;20200;-81
2022/12/22 06:13:16;;;;;;;59.53;26.00;;;3.60;99.90;;;;;;6155765;23;20595;-81
2022/12/22 06:15:43;;;;;;;57.87;26.27;;;3.60;99.90;;;;;;6156157;23;20495;-81
2022/12/22 06:18:10;;;;;;;57.80;26.47;;;3.60;99.90;;;;;;6155906;23;20168;-83
2022/12/22 06:20:37;;;;;;;60.03;25.80;;;3.60;99.90;;;;;;6156014;23;20203;-83
2022/12/22 06:23:04;;;;;;;57.23;26.13;;;3.70;99.90;;;;;;6155787;23;20187;-83
2022/12/22 06:25:31;;;;;;;58.40;26.07;;;3.70;99.90;;;;;;6157313;23;20156;-75
2022/12/22 06:27:58;;;;;;;58.70;25.30;;;3.60;99.90;;;;;;6155726;23;20263;-75
2022/12/22 06:30:25;;;;;;;51.90;24.67;;;3.60;99.90;;;;;;6180684;23;20188;-77
2022/12/22 06:33:00;;;;;;;60.70;26.47;;;3.70;99.90;;;;;;6157377;23;20508;-75
2022/12/22 06:35:27;;;;;;;55.27;25.07;;;3.60;99.90;;;;;;6157378;23;20172;-77
2022/12/22 06:37:54;;;;;;;53.93;25.13;;;3.60;99.90;;;;;;6155803;23;20186;-74
2022/12/22 06:40:21;;;;;;;55.80;25.27;;;3.70;99.90;;;;;;6157430;23;20248;-75
2022/12/22 06:45:39;;;;;;;50.33;23.40;;;3.70;99.90;;;;;;6156814;23;20510;-74
2022/12/22 06:48:08;;;;;;;51.40;23.20;;;3.70;99.90;;;;;;6156942;23;20659;-80
2022/12/22 06:50:35;;;;;;;52.33;24.10;;;3.70;99.90;;;;;;6155534;23;20251;-73
2022/12/22 06:53:02;;;;;;;52.07;24.40;;;3.70;99.90;;;;;;6155822;23;20175;-75
2022/12/22 06:55:30;;;;;;;52.13;23.73;;;3.70;99.90;;;;;;6156967;23;20169;-79
2022/12/22 06:57:57;;;;;;;53.20;24.43;;;3.70;99.90;;;;;;6167569;23;20200;-72
2022/12/22 07:00:24;;;;;;;50.60;23.60;;;3.80;99.90;;;;;;6185385;23;20594;-82
2022/12/22 07:02:51;;;;;;;51.40;22.77;;;3.70;99.90;;;;;;6184831;23;20208;-83
2022/12/22 07:05:18;;;;;;;48.47;23.50;;;3.70;99.90;;;;;;6185317;23;20175;-84
2022/12/22 07:07:45;;;;;;;50.07;23.43;;;3.80;99.90;;;;;;6185269;23;20535;-82
2022/12/22 07:10:12;;;;;;;49.90;23.30;;;3.80;99.90;;;;;;6185637;23;20180;-75
2022/12/22 07:12:39;;;;;;;47.80;22.50;;;3.70;99.90;;;;;;6186056;23;20194;-82
2022/12/22 07:15:06;;;;;;;48.13;23.60;;;3.70;99.90;;;;;;6186830;23;20164;-81
2022/12/22 07:17:33;;;;;;;54.23;23.17;;;3.70;99.90;;;;;;6185059;23;20175;-82
2022/12/22 07:20:00;;;;;;;50.93;23.33;;;3.60;99.90;;;;;;6186060;23;20182;-83
2022/12/22 07:22:27;;;;;;;51.73;23.60;;;3.60;99.90;;;;;;6185691;23;20174;-81
2022/12/22 07:24:58;;;;;;;55.53;24.13;;;3.60;99.90;;;;;;6184564;23;20238;-81
2022/12/22 07:27:25;;;;;;;55.13;24.53;;;3.70;99.90;;;;;;6185097;23;20648;-74
2022/12/22 07:29:52;;;;;;;50.53;23.10;;;3.70;99.90;;;;;;6184873;23;20176;-70
2022/12/22 07:32:18;;;;;;;50.90;23.17;;;3.70;99.90;;;;;;6184567;23;20217;-77
2022/12/22 07:34:46;;;;;;;49.20;23.10;;;3.70;99.90;;;;;;6186356;23;20586;-75
2022/12/22 07:37:13;;;;;;;50.63;23.10;;;3.70;99.90;;;;;;6184791;23;20258;-78
2022/12/22 07:39:40;;;;;;;54.17;24.10;;;3.70;99.90;;;;;;6185152;23;20161;-76
2022/12/22 07:44:56;;;;;;;48.70;22.47;;;3.80;99.90;;;;;;6186327;23;20187;-75
2022/12/22 07:47:25;;;;;;;48.20;22.30;;;3.80;99.90;;;;;;6185080;23;20267;-77
2022/12/22 07:52:46;;;;;;;47.20;22.00;;;3.80;99.90;;;;;;6184989;23;20642;-75
2022/12/22 07:55:13;;;;;;;44.37;21.60;;;3.80;99.90;;;;;;6184666;23;20258;-79
2022/12/22 07:57:40;;;;;;;50.77;22.70;;;3.80;99.90;;;;;;6184413;23;20203;-78
2022/12/22 08:00:08;;;;;;;51.40;23.67;;;3.80;99.90;;;;;;6184736;23;20543;-80
2022/12/22 08:02:35;;;;;;;44.30;22.07;;;3.90;99.90;;;;;;6186052;23;20172;-76
2022/12/22 08:05:06;;;;;;;47.67;22.87;;;4.00;99.90;;;;;;6184641;23;20165;-83
2022/12/22 08:07:33;;;;;;;44.83;21.13;;;4.10;99.90;;;;;;6184634;23;20604;-78
2022/12/22 08:10:00;;;;;;;45.43;22.13;;;4.10;99.90;;;;;;6184918;23;20168;-85
2022/12/22 08:12:28;;;;;;;44.43;21.17;;;4.20;99.90;;;;;;6184762;23;20217;-84
2022/12/22 08:14:55;;;;;;;43.80;21.50;;;4.30;99.90;;;;;;6183742;23;20177;-80
2022/12/22 08:17:22;;;;;;;47.27;22.27;;;4.40;99.90;;;;;;6183983;23;20617;-72
2022/12/22 08:19:49;;;;;;;43.47;21.17;;;4.60;99.90;;;;;;6183690;23;20252;-78
2022/12/22 08:22:16;;;;;;;48.43;23.00;;;4.80;99.90;;;;;;6185142;23;20172;-73
2022/12/22 08:24:43;;;;;;;48.07;21.10;;;5.00;99.90;;;;;;6182853;23;20190;-81
2022/12/22 08:27:14;;;;;;;45.13;21.20;;;5.20;99.90;;;;;;6182698;23;20708;-82
2022/12/22 08:29:56;;;;;;;39.77;20.03;;;5.40;99.90;;;;;;6183151;23;20194;-81
2022/12/22 08:32:22;;;;;;;39.57;19.47;;;5.40;99.90;;;;;;6182980;23;20284;-72
2022/12/22 08:34:51;;;;;;;40.13;19.43;;;5.50;99.90;;;;;;6183511;23;20490;-76
2022/12/22 08:37:21;;;;;;;37.30;20.30;;;5.50;99.90;;;;;;6183820;23;20268;-74
2022/12/22 08:39:56;;;;;;;40.33;19.03;;;5.30;99.90;;;;;;6185254;23;20200;-76
2022/12/22 08:42:25;;;;;;;40.97;19.97;;;5.20;99.90;;;;;;6184048;23;20276;-79
2022/12/22 08:44:52;;;;;;;39.73;19.37;;;5.10;99.90;;;;;;6183711;23;20171;-79
2022/12/22 08:47:20;;;;;;;41.13;19.90;;;4.90;99.90;;;;;;6183878;23;20175;-82
2022/12/22 08:49:48;;;;;;;39.27;19.27;;;4.70;99.90;;;;;;6184280;23;20354;-80
2022/12/22 08:52:15;;;;;;;40.07;19.07;;;4.50;99.90;;;;;;6185739;23;20195;-78
2022/12/22 08:54:45;;;;;;;41.40;20.37;;;4.40;99.90;;;;;;6185523;23;20254;-81
2022/12/22 08:57:12;;;;;;;39.73;19.20;;;4.30;99.90;;;;;;6186318;23;20174;-81
2022/12/22 08:59:39;;;;;;;43.80;20.70;;;4.30;99.90;;;;;;6188523;23;20204;-79
2022/12/22 09:02:06;;;;;;;39.37;19.17;;;4.30;99.90;;;;;;6214713;23;20172;-83
2022/12/22 09:04:34;;;;;;;42.00;20.70;;;4.30;99.90;;;;;;6164134;23;20543;-86
2022/12/22 09:07:05;;;;;;;42.73;20.77;;;4.20;99.90;;;;;;6215108;23;20660;-87
2022/12/22 09:09:33;;;;;;;42.97;20.07;;;4.30;99.90;;;;;;6214195;23;20173;-87
2022/12/22 09:12:03;;;;;;;39.83;19.57;;;4.30;99.90;;;;;;6215255;23;20196;-81
2022/12/22 09:14:36;;;;;;;43.03;20.97;;;4.30;99.90;;;;;;6214643;23;20216;-83
2022/12/22 09:17:03;;;;;;;42.43;20.43;;;4.30;99.90;;;;;;6214681;23;20156;-79
2022/12/22 09:19:30;;;;;;;46.23;22.27;;;4.30;99.90;;;;;;6189051;23;20169;-80
2022/12/22 09:21:57;;;;;;;41.10;20.30;;;4.20;99.90;;;;;;6216028;23;20194;-90
2022/12/22 09:24:24;;;;;;;46.97;22.67;;;4.20;99.90;;;;;;6189148;23;20395;-85
2022/12/22 09:26:52;;;;;;;42.20;20.60;;;4.30;99.90;;;;;;6188058;23;20173;-79
2022/12/22 09:29:18;;;;;;;46.20;21.80;;;4.30;99.90;;;;;;6188721;23;20399;-80
2022/12/22 09:31:45;;;;;;;43.77;21.57;;;4.40;99.90;;;;;;6214740;23;20192;-78
2022/12/22 09:34:12;;;;;;;40.90;20.87;;;4.50;99.90;;;;;;6187032;23;20254;-79
2022/12/22 09:36:44;;;;;;;44.17;20.70;;;4.50;99.90;;;;;;6188154;23;20271;-78
2022/12/22 09:39:11;;;;;;;43.27;20.57;;;4.60;99.90;;;;;;6188623;23;20504;-81
2022/12/22 09:41:50;;;;;;;44.13;20.37;;;4.70;99.90;;;;;;6188202;23;20166;-75
2022/12/22 09:44:32;;;;;;;41.47;20.93;;;4.70;99.90;;;;;;6214595;23;20594;-78
2022/12/22 09:47:02;;;;;;;41.50;20.57;;;4.70;99.90;;;;;;6184805;23;20174;-76
2022/12/22 09:49:31;;;;;;;50.92;26.00;;;4.60;99.90;;;;;;6216140;23;20399;-77
2022/12/22 09:52:02;;;;;;;44.97;22.57;;;4.60;99.90;;;;;;6189140;23;20192;-79
2022/12/22 09:54:29;;;;;;;41.60;21.13;;;4.80;99.90;;;;;;6189876;23;20183;-78
2022/12/22 09:56:57;;;;;;;44.87;21.43;;;4.80;99.90;;;;;;6190458;23;20211;-79
2022/12/22 09:59:27;;;;;;;42.83;20.87;;;4.70;99.90;;;;;;6189450;23;20255;-77
2022/12/22 10:02:24;;;;;;;40.50;20.60;;;4.80;99.90;;;;;;6189410;23;20171;-82
2022/12/22 10:05:27;;;;;;;45.67;20.67;;;4.90;99.90;;;;;;6189424;23;20161;-82
2022/12/22 10:08:01;;;;;;;43.93;20.90;;;4.90;99.90;;;;;;6188900;23;20185;-83
2022/12/22 10:10:30;;;;;;;42.43;20.27;;;5.00;99.90;;;;;;6189693;23;20169;-79
2022/12/22 10:13:00;;;;;;;40.40;20.10;;;5.00;99.90;;;;;;6190279;23;20203;-75
2022/12/22 10:15:35;;;;;;;42.17;20.90;;;5.10;99.90;;;;;;6189380;23;20616;-75
2022/12/22 10:18:29;;;;;;;39.00;19.80;;;5.10;99.90;;;;;;6189648;23;20177;-83
2022/12/22 10:21:14;;;;;;;44.67;21.80;;;5.20;99.90;;;;;;6213907;23;20704;-78
2022/12/22 10:23:47;;;;;;;42.23;20.07;;;5.20;99.90;;;;;;6166328;23;20195;-80
2022/12/22 10:26:26;;;;;;;43.30;21.43;;;5.30;99.90;;;;;;6189631;23;20200;-76
2022/12/22 10:29:15;;;;;;;43.63;20.67;;;5.20;99.90;;;;;;6215788;23;20177;-83
2022/12/22 10:32:03;;;;;;;41.90;20.57;;;5.20;99.90;;;;;;6163617;23;20201;-83
2022/12/22 10:34:30;;;;;;;40.83;21.33;;;5.10;99.90;;;;;;6187533;23;20235;-74
2022/12/22 10:37:03;;;;;;;47.50;22.13;;;5.10;99.90;;;;;;6215634;23;20253;-75
2022/12/22 10:39:33;;;;;;;43.97;21.33;;;5.00;99.90;;;;;;6187544;23;20215;-76
2022/12/22 10:42:12;;;;;;;43.73;22.43;;;4.90;99.90;;;;;;6164080;23;20183;-80
2022/12/22 10:44:45;;;;;;;47.60;21.20;;;4.90;99.90;;;;;;6188992;23;20200;-75
2022/12/22 10:47:22;;;;;;;44.90;21.57;;;4.90;99.90;;;;;;6216210;23;20558;-84
2022/12/22 10:49:55;;;;;;;44.30;21.50;;;5.00;99.90;;;;;;6190694;23;20168;-80
2022/12/22 10:52:27;;;;;;;46.00;21.50;;;5.10;99.90;;;;;;6189595;23;20235;-79
2022/12/22 10:55:28;;;;;;;47.07;22.33;;;5.10;99.90;;;;;;6215578;23;20522;-85
2022/12/22 10:58:54;;;;;;;53.72;26.73;;;5.00;99.90;;;;;;6189418;23;20404;-90
2022/12/22 11:01:39;;;;;;;44.53;22.20;;;4.80;99.90;;;;;;6189054;23;20604;-89
2022/12/22 11:04:35;;;;;;;44.90;22.17;;;5.10;99.90;;;;;;6190804;23;20196;-85
2022/12/22 11:07:08;;;;;;;48.93;22.50;;;5.10;99.90;;;;;;6189387;23;20194;-75
2022/12/22 11:09:35;;;;;;;47.40;22.50;;;5.10;99.90;;;;;;6188375;23;20176;-75
2022/12/22 11:12:22;;;;;;;45.53;22.33;;;5.10;99.90;;;;;;6188784;23;20224;-76
2022/12/22 11:15:28;;;;;;;46.13;21.80;;;5.10;99.90;;;;;;6188886;23;20199;-76
2022/12/22 11:18:19;;;;;;;52.67;27.38;;;5.20;99.90;;;;;;6162179;23;20407;-74
2022/12/22 11:20:58;;;;;;;46.33;22.17;;;5.30;99.90;;;;;;6216304;23;20160;-75
2022/12/22 11:23:52;;;;;;;47.27;23.40;;;5.50;99.90;;;;;;6188899;23;20173;-76
2022/12/22 11:26:53;;;;;;;43.73;21.33;;;5.70;99.90;;;;;;6189633;23;20184;-75
2022/12/22 11:29:41;;;;;;;43.97;20.87;;;6.00;99.90;;;;;;6151778;23;20179;-73
2022/12/22 11:32:54;;;;;;;40.93;20.57;;;6.10;99.90;;;;;;6153499;23;20264;-73
2022/12/22 11:36:16;;;;;;;42.10;20.73;;;6.20;99.90;;;;;;6127917;23;20175;-79
2022/12/22 11:39:05;;;;;;;40.60;20.23;;;6.10;99.90;;;;;;6041156;23;20187;-89
2022/12/22 11:41:59;;;;;;;42.03;20.10;;;6.10;99.90;;;;;;6064792;23;20178;-82
2022/12/22 11:44:39;;;;;;;43.40;20.47;;;6.20;99.90;;;;;;6065661;23;20700;-88
2022/12/22 11:47:49;;;;;;;40.83;20.53;;;6.30;99.90;;;;;;6066170;23;20195;-84
2022/12/22 11:50:19;;;;;;;42.53;20.43;;;6.30;99.90;;;;;;5953314;24;20262;-86
2022/12/22 11:53:22;;;;;;;42.87;20.27;;;6.30;99.90;;;;;;5951680;24;20228;-85
2022/12/22 11:56:16;;;;;;;40.87;21.03;;;6.20;99.90;;;;;;5929551;24;20623;-85
2022/12/22 11:59:02;;;;;;;40.13;20.23;;;6.30;99.90;;;;;;5931035;24;20769;-76
2022/12/22 12:01:47;;;;;;;37.53;19.80;;;6.20;99.90;;;;;;5953731;24;20621;-81
2022/12/22 12:04:38;;;;;;;40.27;19.73;;;6.20;99.90;;;;;;5953826;24;20190;-91
2022/12/22 12:07:38;;;;;;;41.03;19.70;;;6.10;99.90;;;;;;5981230;24;20255;-84
2022/12/22 12:10:25;;;;;;;42.03;20.43;;;6.10;99.90;;;;;;5981653;24;20209;-88
2022/12/22 12:13:01;;;;;;;39.60;19.80;;;6.10;99.90;;;;;;5955983;24;20737;-89
2022/12/22 12:15:40;;;;;;;42.77;20.27;;;6.10;99.90;;;;;;6003716;23;20553;-79
2022/12/22 12:19:01;;;;;;;38.17;19.93;;;6.20;99.90;;;;;;6040138;23;20206;-94
2022/12/22 12:21:48;;;;;;;40.77;20.60;;;6.20;99.90;;;;;;6039868;23;20228;-77
2022/12/22 12:24:49;;;;;;;40.50;20.63;;;6.30;99.90;;;;;;6039711;23;20505;-83
2022/12/22 12:27:55;;;;;;;36.63;19.07;;;6.40;99.90;;;;;;6190703;23;20203;-84
2022/12/22 12:30:23;;;;;;;36.97;19.17;;;6.30;99.90;;;;;;6209663;23;20564;-91
2022/12/22 12:33:19;;;;;;;39.43;18.93;;;6.30;99.90;;;;;;6214600;23;20662;-89
2022/12/22 12:36:20;;;;;;;36.57;18.27;;;6.40;99.90;;;;;;6191732;23;20176;-92
2022/12/22 12:39:01;;;;;;;34.47;17.23;;;6.30;99.90;;;;;;6127542;23;20186;-78
2022/12/22 12:42:09;;;;;;;37.07;17.93;;;6.20;99.90;;;;;;6126631;23;20184;-81
2022/12/22 12:44:38;;;;;;;36.17;17.13;;;6.20;99.90;;;;;;6152311;23;20178;-79
2022/12/22 12:47:23;;;;;;;34.07;17.20;;;6.20;99.90;;;;;;6152058;23;20613;-76
2022/12/22 12:49:57;;;;;;;33.50;17.30;;;6.10;99.90;;;;;;6152118;23;20581;-83
2022/12/22 12:52:49;;;;;;;33.77;18.00;;;6.00;99.90;;;;;;6127334;23;20285;-74
2022/12/22 12:55:37;;;;;;;35.30;17.70;;;5.90;99.90;;;;;;6063514;23;20266;-76
2022/12/22 12:58:09;;;;;;;33.77;17.17;;;5.80;99.90;;;;;;6064125;23;20295;-78
2022/12/22 13:00:38;;;;;;;30.93;15.60;;;5.70;99.90;;;;;;6061758;23;20185;-75
2022/12/22 13:03:23;;;;;;;32.13;15.83;;;5.60;99.90;;;;;;6037302;23;20744;-83
2022/12/22 13:06:45;;;;;;;34.37;15.87;;;5.40;99.90;;;;;;6064438;23;20171;-74
2022/12/22 13:09:26;;;;;;;32.87;16.30;;;5.20;99.90;;;;;;6063747;23;20653;-74
2022/12/22 13:12:53;;;;;;;35.97;16.70;;;5.20;99.90;;;;;;6004496;23;20199;-81
2022/12/22 13:15:28;;;;;;;35.53;16.53;;;5.10;99.90;;;;;;6052295;23;20626;-74
2022/12/22 13:17:56;;;;;;;32.93;17.23;;;5.10;99.90;;;;;;6093880;23;20481;-81
2022/12/22 13:20:31;;;;;;;35.30;16.67;;;5.10;99.90;;;;;;6092894;23;20184;-75
2022/12/22 13:23:08;;;;;;;33.67;16.50;;;5.10;99.90;;;;;;6095604;23;20171;-85
2022/12/22 13:25:52;;;;;;;34.20;17.07;;;5.20;99.90;;;;;;6068879;23;20214;-77
2022/12/22 13:28:23;;;;;;;38.37;18.03;;;5.00;99.90;;;;;;6046133;23;20201;-81
2022/12/22 13:31:03;;;;;;;37.53;18.53;;;5.00;99.90;;;;;;6070573;23;20182;-81
2022/12/22 13:33:36;;;;;;;37.53;18.13;;;5.00;99.90;;;;;;6161703;23;20289;-87
2022/12/22 13:36:07;;;;;;;34.60;17.47;;;5.00;99.90;;;;;;6187832;23;20591;-82
2022/12/22 13:38:36;;;;;;;36.13;18.73;;;5.00;99.90;;;;;;6213244;23;20162;-83
2022/12/22 13:41:20;;;;;;;37.83;18.60;;;5.00;99.90;;;;;;6214574;23;20226;-85
2022/12/22 13:43:57;;;;;;;37.70;17.87;;;5.10;99.90;;;;;;6187037;23;20639;-86
2022/12/22 13:46:25;;;;;;;35.60;18.77;;;5.10;99.90;;;;;;6187643;23;20277;-87
2022/12/22 13:48:55;;;;;;;37.10;18.03;;;5.00;99.90;;;;;;6187430;23;20633;-86
2022/12/22 13:51:26;;;;;;;37.57;19.23;;;5.10;99.90;;;;;;6188111;23;20159;-84
2022/12/22 13:54:01;;;;;;;37.40;17.97;;;5.10;99.90;;;;;;6188628;23;20196;-87
2022/12/22 13:56:44;;;;;;;38.00;18.17;;;5.20;99.90;;;;;;6213857;23;20282;-85
2022/12/22 13:59:39;;;;;;;37.53;18.27;;;5.20;99.90;;;;;;6163408;23;20195;-84
2022/12/22 14:02:10;;;;;;;36.83;18.80;;;5.30;99.90;;;;;;6214559;23;20345;-78
2022/12/22 14:04:44;;;;;;;34.10;17.90;;;5.30;99.90;;;;;;6215217;23;20486;-86
2022/12/22 14:07:19;;;;;;;39.43;18.80;;;5.30;99.90;;;;;;6188455;23;20177;-79
2022/12/22 14:09:53;;;;;;;37.47;18.77;;;5.40;99.90;;;;;;6215271;23;20179;-80
2022/12/22 14:12:27;;;;;;;37.90;19.17;;;5.30;99.90;;;;;;6215275;23;20193;-83
2022/12/22 14:14:56;;;;;;;37.30;19.13;;;5.30;99.90;;;;;;6188637;23;20165;-84
2022/12/22 14:17:27;;;;;;;41.00;19.03;;;5.20;99.90;;;;;;6187845;23;20316;-83
2022/12/22 14:19:57;;;;;;;38.03;19.13;;;5.30;99.90;;;;;;6188646;23;20176;-83
2022/12/22 14:22:35;;;;;;;40.50;19.07;;;5.20;99.90;;;;;;6213162;23;20184;-81
2022/12/22 14:25:43;;;;;;;36.83;18.43;;;5.20;99.90;;;;;;6163162;23;20198;-82
2022/12/22 14:28:49;;;;;;;38.17;19.77;;;5.20;99.90;;;;;;6186699;23;20264;-78
2022/12/22 14:32:07;;;;;;;37.77;18.83;;;5.20;99.90;;;;;;6149541;23;20531;-79
2022/12/22 14:34:45;;;;;;;38.93;18.77;;;5.20;99.90;;;;;;6213723;23;20176;-79
2022/12/22 14:37:31;;;;;;;73.43;24.03;;;5.20;99.90;;;;;;6190159;23;20259;-78
2022/12/22 14:39:59;;;;;;;35.80;18.57;;;5.20;99.90;;;;;;6190389;23;20175;-75
2022/12/22 14:42:27;;;;;;;40.60;19.77;;;5.20;99.90;;;;;;6216423;23;20283;-74
2022/12/22 14:44:59;;;;;;;41.73;19.53;;;5.10;99.90;;;;;;6189682;23;20168;-75
2022/12/22 14:47:39;;;;;;;36.33;18.33;;;5.20;99.90;;;;;;6189893;23;20170;-83
2022/12/22 14:50:19;;;;;;;37.80;18.43;;;5.10;99.90;;;;;;6216853;23;20524;-77
2022/12/22 14:52:57;;;;;;;45.50;19.23;;;5.10;99.90;;;;;;6190134;23;20227;-71
2022/12/22 14:55:31;;;;;;;38.67;18.43;;;5.10;99.90;;;;;;6189504;23;20181;-70
2022/12/22 14:58:03;;;;;;;40.33;19.97;;;5.20;99.90;;;;;;6189934;23;20232;-73
2022/12/22 15:00:34;;;;;;;39.83;19.30;;;5.30;99.90;;;;;;6190280;23;20562;-80
2022/12/22 15:03:05;;;;;;;39.27;19.37;;;5.30;99.90;;;;;;6216309;23;20182;-75
2022/12/22 15:05:36;;;;;;;39.23;19.37;;;5.30;99.90;;;;;;6215560;23;20166;-79
2022/12/22 15:08:05;;;;;;;38.90;19.93;;;5.30;99.90;;;;;;6215262;23;20231;-77
2022/12/22 15:10:44;;;;;;;42.50;18.90;;;5.30;99.90;;;;;;6216197;23;20265;-75
2022/12/22 15:13:21;;;;;;;39.40;18.97;;;5.30;99.90;;;;;;6188451;23;20277;-72
2022/12/22 15:15:51;;;;;;;39.60;19.43;;;5.20;99.90;;;;;;6189308;23;20256;-74
2022/12/22 15:18:25;;;;;;;39.10;18.93;;;5.20;99.90;;;;;;6188920;23;20675;-75
2022/12/22 15:20:53;;;;;;;37.80;18.77;;;5.20;99.90;;;;;;6189755;23;20236;-74
2022/12/22 15:23:20;;;;;;;43.20;19.93;;;5.20;99.90;;;;;;6188956;23;20235;-75
2022/12/22 15:25:47;;;;;;;37.50;19.27;;;5.20;99.90;;;;;;6189476;23;20593;-76
2022/12/22 15:28:15;;;;;;;39.20;19.37;;;5.20;99.90;;;;;;6188898;23;20169;-74
2022/12/22 15:30:42;;;;;;;38.10;18.83;;;5.20;99.90;;;;;;6188908;23;20178;-73
2022/12/22 15:33:14;;;;;;;37.13;19.23;;;5.20;99.90;;;;;;6189686;23;20201;-74
2022/12/22 15:35:42;;;;;;;41.57;19.87;;;5.20;99.90;;;;;;6189529;23;20174;-76
2022/12/22 15:38:17;;;;;;;39.63;20.43;;;5.20;99.90;;;;;;6189744;23;20200;-78
2022/12/22 15:40:45;;;;;;;40.60;19.23;;;5.20;99.90;;;;;;6189757;23;20500;-78
2022/12/22 15:43:16;;;;;;;39.87;19.93;;;5.20;99.90;;;;;;6189720;23;20170;-76
2022/12/22 15:46:05;;;;;;;39.13;19.23;;;5.20;99.90;;;;;;6189232;23;20232;-74
2022/12/22 15:48:35;;;;;;;38.97;20.00;;;5.10;99.90;;;;;;6216429;23;20193;-73
2022/12/22 15:51:04;;;;;;;41.57;19.77;;;5.00;99.90;;;;;;6189005;23;20233;-74
2022/12/22 15:53:33;;;;;;;38.07;19.57;;;5.00;99.90;;;;;;6189389;23;20197;-78
2022/12/22 15:56:00;;;;;;;38.63;19.53;;;5.00;99.90;;;;;;6189395;23;20172;-79
2022/12/22 15:58:31;;;;;;;41.33;19.60;;;5.00;99.90;;;;;;6189119;23;20252;-76
2022/12/22 16:00:59;;;;;;;41.63;20.57;;;5.00;99.90;;;;;;6189441;23;20189;-86
2022/12/22 16:03:30;;;;;;;44.03;21.40;;;5.00;99.90;;;;;;6185327;23;20170;-80
2022/12/22 16:06:03;;;;;;;43.47;21.00;;;5.00;99.90;;;;;;6189071;23;20172;-77
2022/12/22 16:08:58;;;;;;;38.73;19.60;;;4.90;99.90;;;;;;6189084;23;20166;-79
2022/12/22 16:11:56;;;;;;;41.53;20.63;;;4.90;99.90;;;;;;6186618;23;20478;-76
2022/12/22 16:14:23;;;;;;;43.60;21.07;;;4.90;99.90;;;;;;6189604;23;20197;-76
2022/12/22 16:16:53;;;;;;;44.07;21.20;;;4.90;99.90;;;;;;6189402;23;20177;-78
2022/12/22 16:19:20;;;;;;;42.97;22.03;;;4.80;99.90;;;;;;6189696;23;20640;-79
2022/12/22 16:21:52;;;;;;;41.73;20.67;;;4.80;99.90;;;;;;6215844;23;20189;-78
2022/12/22 16:24:33;;;;;;;44.73;21.67;;;4.80;99.90;;;;;;6189231;23;20196;-78
2022/12/22 16:27:12;;;;;;;43.67;22.13;;;4.80;99.90;;;;;;6165017;23;20169;-77
2022/12/22 16:29:45;;;;;;;47.00;21.53;;;4.70;99.90;;;;;;6189659;23;20260;-79
2022/12/22 16:32:22;;;;;;;47.90;22.00;;;4.70;99.90;;;;;;6216216;23;20491;-83
2022/12/22 16:34:49;;;;;;;46.43;22.03;;;4.70;99.90;;;;;;6215914;23;20504;-86
2022/12/22 16:37:23;;;;;;;47.23;21.87;;;4.80;99.90;;;;;;6190033;23;20242;-81
2022/12/22 16:39:53;;;;;;;43.90;21.83;;;4.90;99.90;;;;;;6189443;23;20174;-86
2022/12/22 16:42:23;;;;;;;44.33;22.47;;;4.80;99.90;;;;;;6216368;23;20586;-87
2022/12/22 16:45:21;;;;;;;45.10;22.97;;;4.70;99.90;;;;;;6189770;23;20161;-84
2022/12/22 16:47:57;;;;;;;46.33;23.07;;;4.80;99.90;;;;;;6217082;23;20258;-82
2022/12/22 16:50:32;;;;;;;45.80;23.00;;;4.80;99.90;;;;;;6189874;23;20183;-83
2022/12/22 16:53:01;;;;;;;46.13;23.23;;;4.70;99.90;;;;;;6190064;23;20202;-79
2022/12/22 16:55:43;;;;;;;46.17;22.90;;;4.70;99.90;;;;;;6215814;23;20669;-81